Time;durP1;ratioP1;P1;durP2;ratioP2;P2;SDS_P1;SDS_P2;PMS_P1;PMS_P2;Temp;Humidity;BMP_temperature;BMP_pressure;BME280_temperature;BME280_humidity;BME280_pressure;Samples;Min_cycle;Max_cycle;Signal;HPM_P1;HPM_P2
2023/07/26 00:04:12;;;;;;;1.42;0.55;;;;;;;;;;10293744;28;20134;-86
2023/07/26 00:09:16;;;;;;;0.88;0.60;;;;;;;;;;10274204;28;20046;-87
2023/07/26 00:14:20;;;;;;;1.20;0.60;;;;;;;;;;10285273;28;20054;-86
2023/07/26 00:19:24;;;;;;;0.70;0.70;;;;;;;;;;10287458;28;20053;-85
2023/07/26 00:24:27;;;;;;;0.93;0.68;;;;;;;;;;10284581;28;20108;-87
2023/07/26 00:29:32;;;;;;;0.70;0.60;;;;;;;;;;10282079;28;20046;-86
2023/07/26 00:34:36;;;;;;;2.33;0.80;;;;;;;;;;10289337;28;20123;-85
2023/07/26 00:39:39;;;;;;;1.50;0.80;;;;;;;;;;10299197;28;20043;-85
2023/07/26 00:44:45;;;;;;;1.27;0.73;;;;;;;;;;10301703;28;20053;-84
2023/07/26 00:49:50;;;;;;;0.75;0.55;;;;;;;;;;10292084;28;20109;-86
2023/07/26 00:54:55;;;;;;;0.60;0.60;;;;;;;;;;10281278;28;20120;-84
2023/07/26 01:00:00;;;;;;;0.77;0.57;;;;;;;;;;10282958;28;20138;-84
2023/07/26 01:05:04;;;;;;;0.50;0.50;;;;;;;;;;10290391;28;20046;-85
2023/07/26 01:10:19;;;;;;;5.05;0.93;;;;;;;;;;10301727;28;20092;-85
2023/07/26 01:15:27;;;;;;;0.55;0.40;;;;;;;;;;10278496;28;20134;-85
2023/07/26 01:20:30;;;;;;;1.27;0.80;;;;;;;;;;10284798;28;20047;-84
2023/07/26 01:25:36;;;;;;;0.80;0.80;;;;;;;;;;10285553;28;20078;-84
2023/07/26 01:30:39;;;;;;;0.40;0.40;;;;;;;;;;10274730;28;20054;-85
2023/07/26 01:35:43;;;;;;;1.38;0.55;;;;;;;;;;10297131;28;20133;-84
2023/07/26 01:40:49;;;;;;;0.50;0.50;;;;;;;;;;10305477;28;20054;-84
2023/07/26 01:45:52;;;;;;;3.03;0.50;;;;;;;;;;10285229;28;20101;-85
2023/07/26 01:50:55;;;;;;;0.47;0.45;;;;;;;;;;10299408;28;20310;-85
2023/07/26 01:56:02;;;;;;;0.70;0.43;;;;;;;;;;10291790;28;20038;-85
2023/07/26 02:01:06;;;;;;;2.57;0.70;;;;;;;;;;10279483;28;20057;-84
2023/07/26 02:06:09;;;;;;;0.50;0.50;;;;;;;;;;10273897;28;20100;-84
2023/07/26 02:11:14;;;;;;;1.30;0.57;;;;;;;;;;10275689;28;20696;-84
2023/07/26 02:16:17;;;;;;;1.70;0.60;;;;;;;;;;10274517;28;20491;-83
2023/07/26 02:21:21;;;;;;;1.40;0.52;;;;;;;;;;10273350;28;20042;-84
2023/07/26 02:26:26;;;;;;;0.55;0.40;;;;;;;;;;10287247;28;20509;-84
2023/07/26 02:31:29;;;;;;;0.80;0.40;;;;;;;;;;10280109;28;20616;-84
2023/07/26 02:36:32;;;;;;;0.93;0.60;;;;;;;;;;10276087;28;20513;-85
2023/07/26 02:41:37;;;;;;;1.02;0.45;;;;;;;;;;10278293;28;20142;-84
2023/07/26 02:46:40;;;;;;;2.17;0.40;;;;;;;;;;10265373;28;20144;-84
2023/07/26 02:51:44;;;;;;;0.70;0.50;;;;;;;;;;10296852;28;20081;-85
2023/07/26 02:56:49;;;;;;;0.65;0.50;;;;;;;;;;10287370;28;20050;-84
2023/07/26 03:01:52;;;;;;;0.70;0.40;;;;;;;;;;10276608;28;20039;-84
2023/07/26 03:06:55;;;;;;;2.50;0.73;;;;;;;;;;10280385;28;20688;-84
2023/07/26 03:12:00;;;;;;;1.13;0.60;;;;;;;;;;10278288;28;20141;-84
2023/07/26 03:17:03;;;;;;;0.88;0.50;;;;;;;;;;10304975;28;20054;-85
2023/07/26 03:22:14;;;;;;;0.32;0.30;;;;;;;;;;10277754;28;20411;-85
2023/07/26 03:27:19;;;;;;;0.65;0.43;;;;;;;;;;10281659;28;20133;-84
2023/07/26 03:32:23;;;;;;;0.30;0.30;;;;;;;;;;10295062;28;20065;-85
2023/07/26 03:37:26;;;;;;;0.50;0.45;;;;;;;;;;10295030;28;20075;-84
2023/07/26 03:42:31;;;;;;;2.13;0.65;;;;;;;;;;10296288;28;21030;-85
2023/07/26 03:47:34;;;;;;;0.50;0.50;;;;;;;;;;10292270;28;20034;-84
2023/07/26 03:52:37;;;;;;;0.50;0.50;;;;;;;;;;10290075;28;20497;-84
2023/07/26 03:57:42;;;;;;;0.40;0.40;;;;;;;;;;10282387;28;20055;-86
2023/07/26 04:02:47;;;;;;;1.20;0.63;;;;;;;;;;10284357;28;20129;-86
2023/07/26 04:07:51;;;;;;;0.40;0.38;;;;;;;;;;10295527;28;20051;-85
2023/07/26 04:12:55;;;;;;;0.52;0.50;;;;;;;;;;10318653;28;20446;-86
2023/07/26 04:17:59;;;;;;;2.78;0.70;;;;;;;;;;10305297;28;20046;-85
2023/07/26 04:23:02;;;;;;;0.80;0.60;;;;;;;;;;10306314;28;20098;-86
2023/07/26 04:28:07;;;;;;;0.52;0.30;;;;;;;;;;10286222;28;20074;-86
2023/07/26 04:33:10;;;;;;;0.75;0.45;;;;;;;;;;10293709;28;20070;-86
2023/07/26 04:38:13;;;;;;;0.70;0.50;;;;;;;;;;10284970;28;20075;-86
2023/07/26 04:43:19;;;;;;;1.15;0.40;;;;;;;;;;10291504;28;20113;-85
2023/07/26 04:48:23;;;;;;;1.77;0.50;;;;;;;;;;10292277;28;20070;-84
2023/07/26 04:53:26;;;;;;;0.50;0.40;;;;;;;;;;10275579;28;20526;-84
2023/07/26 04:58:31;;;;;;;1.60;0.55;;;;;;;;;;10299746;28;20051;-84
2023/07/26 05:03:35;;;;;;;0.30;0.30;;;;;;;;;;10280780;28;20415;-84
2023/07/26 05:08:39;;;;;;;0.52;0.43;;;;;;;;;;10309688;28;20179;-84
2023/07/26 05:13:44;;;;;;;1.23;0.50;;;;;;;;;;10286350;28;20487;-86
2023/07/26 05:18:47;;;;;;;1.48;0.50;;;;;;;;;;10297537;28;20084;-85
2023/07/26 05:23:51;;;;;;;0.95;0.50;;;;;;;;;;10309846;28;20058;-85
2023/07/26 05:29:10;;;;;;;0.80;0.57;;;;;;;;;;10312294;28;20243;-85
2023/07/26 05:34:14;;;;;;;3.90;0.73;;;;;;;;;;10267091;28;20126;-84
2023/07/26 05:39:17;;;;;;;3.17;0.63;;;;;;;;;;10319447;28;20620;-84
2023/07/26 05:44:22;;;;;;;1.75;0.50;;;;;;;;;;10302889;28;20074;-83
2023/07/26 05:49:25;;;;;;;1.27;0.63;;;;;;;;;;10281610;28;20054;-84
2023/07/26 05:54:29;;;;;;;1.10;0.55;;;;;;;;;;10290780;28;20058;-83
2023/07/26 05:59:33;;;;;;;5.03;0.52;;;;;;;;;;10300616;28;20074;-85
2023/07/26 06:04:38;;;;;;;1.80;0.60;;;;;;;;;;10293676;28;20129;-84
2023/07/26 06:09:42;;;;;;;1.30;0.73;;;;;;;;;;10297699;28;20090;-83
2023/07/26 06:14:46;;;;;;;0.90;0.60;;;;;;;;;;10315808;28;20537;-85
2023/07/26 06:19:50;;;;;;;1.38;0.50;;;;;;;;;;10324435;28;20066;-85
2023/07/26 06:24:59;;;;;;;0.55;0.40;;;;;;;;;;10300608;28;20081;-85
2023/07/26 06:30:05;;;;;;;0.60;0.38;;;;;;;;;;10288903;28;20058;-85
2023/07/26 06:35:14;;;;;;;0.90;0.50;;;;;;;;;;10294950;28;20046;-84
2023/07/26 06:40:17;;;;;;;1.30;0.50;;;;;;;;;;10297534;28;20290;-84
2023/07/26 06:45:25;;;;;;;2.53;0.60;;;;;;;;;;10307592;28;20046;-86
2023/07/26 06:50:28;;;;;;;1.10;0.55;;;;;;;;;;10277554;28;20510;-85
2023/07/26 06:55:35;;;;;;;1.65;0.70;;;;;;;;;;10293898;28;20118;-85
2023/07/26 07:00:40;;;;;;;1.52;0.68;;;;;;;;;;10277236;28;20059;-85
2023/07/26 07:05:47;;;;;;;1.20;0.68;;;;;;;;;;10278350;28;20509;-85
2023/07/26 13:47:09;;;;;;;1.98;0.68;;;;;;;;;;10281892;28;20035;-84
2023/07/26 13:52:15;;;;;;;2.17;0.80;;;;;;;;;;10305536;28;20064;-90
2023/07/26 13:57:18;;;;;;;;;;;;;;;;;;10301498;28;20055;-92
2023/07/26 14:02:35;;;;;;;2.03;0.70;;;;;;;;;;10345455;28;20368;-92
2023/07/26 14:07:58;;;;;;;3.17;0.60;;;;;;;;;;10315423;28;20061;-92
2023/07/26 14:13:19;;;;;;;;;;;;;;;;;;;;;
2023/07/26 14:18:29;;;;;;;1.90;0.65;;;;;;;;;;10332146;28;20056;-92
2023/07/26 14:23:45;;;;;;;0.85;0.60;;;;;;;;;;10362428;28;20057;-92
2023/07/26 14:28:51;;;;;;;1.08;0.57;;;;;;;;;;10358392;28;20049;-90
2023/07/26 14:33:59;;;;;;;0.50;0.50;;;;;;;;;;10361914;28;20103;-89
2023/07/26 14:39:04;;;;;;;1.27;0.73;;;;;;;;;;10378955;28;20049;-90
2023/07/26 14:44:08;;;;;;;1.60;0.68;;;;;;;;;;10376403;28;20049;-90
2023/07/26 14:49:14;;;;;;;1.17;0.60;;;;;;;;;;10365925;28;20050;-90
2023/07/26 14:54:19;;;;;;;0.75;0.50;;;;;;;;;;10367067;28;20057;-90
2023/07/26 14:59:23;;;;;;;1.35;0.50;;;;;;;;;;10375786;28;20065;-90
2023/07/26 15:04:28;;;;;;;0.65;0.50;;;;;;;;;;10380330;28;20056;-90
2023/07/26 15:09:32;;;;;;;1.23;0.50;;;;;;;;;;10364354;28;20046;-90
2023/07/26 15:14:37;;;;;;;0.45;0.45;;;;;;;;;;10382689;28;20401;-90
2023/07/26 15:19:47;;;;;;;1.52;0.73;;;;;;;;;;10340304;28;20077;-90
2023/07/26 15:24:52;;;;;;;1.42;0.55;;;;;;;;;;10350855;28;20041;-90
2023/07/26 15:29:56;;;;;;;0.77;0.40;;;;;;;;;;10368674;28;20056;-89
2023/07/26 15:35:02;;;;;;;0.40;0.40;;;;;;;;;;10365487;28;20073;-90
2023/07/26 15:40:07;;;;;;;0.68;0.60;;;;;;;;;;10361387;28;20042;-89
2023/07/26 15:45:12;;;;;;;0.40;0.40;;;;;;;;;;10355700;28;20066;-91
2023/07/26 15:50:20;;;;;;;0.70;0.60;;;;;;;;;;10355967;28;20045;-90
2023/07/26 15:55:31;;;;;;;0.93;0.50;;;;;;;;;;10359341;28;20046;-90
2023/07/26 16:00:35;;;;;;;0.70;0.63;;;;;;;;;;10384627;28;20038;-90
2023/07/26 16:05:40;;;;;;;0.60;0.55;;;;;;;;;;10383756;28;20059;-90
2023/07/26 16:10:44;;;;;;;1.48;0.60;;;;;;;;;;10368234;28;20103;-90
2023/07/26 16:15:48;;;;;;;0.60;0.50;;;;;;;;;;10381520;28;20060;-90
2023/07/26 16:20:56;;;;;;;1.50;0.90;;;;;;;;;;10363047;28;20181;-90
2023/07/26 16:26:03;;;;;;;1.10;0.70;;;;;;;;;;10364393;28;20061;-89
2023/07/26 16:31:07;;;;;;;0.60;0.50;;;;;;;;;;10341025;28;20049;-90
2023/07/26 16:36:12;;;;;;;1.10;1.00;;;;;;;;;;10368614;28;20050;-89
2023/07/26 16:41:16;;;;;;;0.70;0.70;;;;;;;;;;10343580;28;20050;-90
2023/07/26 16:46:20;;;;;;;1.15;0.65;;;;;;;;;;10380443;28;20045;-90
2023/07/26 16:51:25;;;;;;;0.60;0.60;;;;;;;;;;10377152;28;20753;-89
2023/07/26 16:56:29;;;;;;;0.60;0.57;;;;;;;;;;10388759;28;20141;-89
2023/07/26 17:01:33;;;;;;;0.82;0.65;;;;;;;;;;10356768;28;20288;-90
2023/07/26 17:06:38;;;;;;;0.60;0.50;;;;;;;;;;10359551;28;20117;-90
2023/07/26 17:11:42;;;;;;;2.42;0.65;;;;;;;;;;10365222;28;20064;-90
2023/07/26 17:16:46;;;;;;;2.10;0.50;;;;;;;;;;10378402;28;20052;-90
2023/07/26 17:21:51;;;;;;;0.47;0.47;;;;;;;;;;10363137;28;20068;-89
2023/07/26 17:26:55;;;;;;;0.90;0.57;;;;;;;;;;10350900;28;20046;-90
2023/07/26 17:31:58;;;;;;;2.00;0.98;;;;;;;;;;10348812;28;20061;-89
2023/07/26 17:37:07;;;;;;;0.60;0.60;;;;;;;;;;10347784;28;20122;-90
2023/07/26 17:42:11;;;;;;;0.70;0.70;;;;;;;;;;10348094;28;20042;-93
2023/07/26 17:47:15;;;;;;;0.85;0.75;;;;;;;;;;10370473;28;20047;-92
2023/07/26 17:52:20;;;;;;;0.60;0.60;;;;;;;;;;10347593;28;20105;-90
2023/07/26 17:57:30;;;;;;;0.95;0.77;;;;;;;;;;10373943;28;20049;-90
2023/07/26 18:02:35;;;;;;;0.85;0.70;;;;;;;;;;10366006;28;20061;-90
2023/07/26 18:07:40;;;;;;;1.52;0.63;;;;;;;;;;10360826;28;20528;-90
2023/07/26 18:12:45;;;;;;;0.70;0.70;;;;;;;;;;10361540;28;20077;-90
2023/07/26 18:17:49;;;;;;;0.70;0.70;;;;;;;;;;10351581;28;20505;-90
2023/07/26 18:22:54;;;;;;;1.30;0.80;;;;;;;;;;10346194;28;20045;-90
2023/07/26 18:27:59;;;;;;;1.60;0.73;;;;;;;;;;10342192;28;20045;-90
2023/07/26 18:33:03;;;;;;;1.88;0.60;;;;;;;;;;10351529;28;20073;-91
2023/07/26 18:38:09;;;;;;;1.60;0.80;;;;;;;;;;10348555;28;20038;-90
2023/07/26 18:43:13;;;;;;;1.30;0.77;;;;;;;;;;10354902;28;20266;-89
2023/07/26 18:48:38;;;;;;;;;;;;;;;;;;;;;
2023/07/26 18:53:44;;;;;;;1.05;0.75;;;;;;;;;;10356900;28;20054;-90
2023/07/26 18:58:48;;;;;;;1.30;0.80;;;;;;;;;;10364525;28;20057;-91
2023/07/26 19:03:51;;;;;;;2.45;0.95;;;;;;;;;;10362513;28;20064;-90
2023/07/26 19:08:57;;;;;;;0.77;0.73;;;;;;;;;;10361464;28;20501;-90
2023/07/26 19:14:00;;;;;;;1.35;0.60;;;;;;;;;;10345863;28;20053;-90
2023/07/26 19:19:04;;;;;;;1.02;0.75;;;;;;;;;;10364764;28;20112;-90
2023/07/26 19:24:09;;;;;;;1.08;0.70;;;;;;;;;;10362012;28;20057;-90
2023/07/26 19:29:14;;;;;;;1.13;0.90;;;;;;;;;;10350336;28;20386;-92
2023/07/26 19:34:19;;;;;;;1.75;0.90;;;;;;;;;;10370363;28;20048;-91
2023/07/26 19:39:24;;;;;;;0.88;0.77;;;;;;;;;;10368921;28;20052;-90
2023/07/26 19:44:27;;;;;;;1.55;0.73;;;;;;;;;;10369094;28;20065;-90
2023/07/26 19:49:31;;;;;;;1.98;0.82;;;;;;;;;;10379842;28;20042;-91
2023/07/26 19:54:36;;;;;;;0.70;0.70;;;;;;;;;;10358210;28;20065;-91
2023/07/26 19:59:40;;;;;;;1.45;1.10;;;;;;;;;;10375099;28;20053;-90
2023/07/26 20:04:44;;;;;;;0.70;0.60;;;;;;;;;;10366289;28;20060;-91
2023/07/26 20:09:52;;;;;;;0.60;0.60;;;;;;;;;;10387238;28;20057;-91
2023/07/26 20:14:58;;;;;;;0.95;0.70;;;;;;;;;;10387232;28;20065;-91
2023/07/26 20:20:03;;;;;;;2.63;0.80;;;;;;;;;;10364704;28;20041;-92
2023/07/26 20:25:18;;;;;;;1.88;0.82;;;;;;;;;;10360415;28;20038;-92
2023/07/26 20:30:23;;;;;;;1.48;0.70;;;;;;;;;;10356169;28;20041;-92
2023/07/26 20:35:28;;;;;;;0.87;0.70;;;;;;;;;;10362257;28;20045;-92
2023/07/26 20:40:38;;;;;;;1.60;0.68;;;;;;;;;;10361358;28;20073;-92
2023/07/26 20:45:49;;;;;;;2.17;0.80;;;;;;;;;;10356836;28;20049;-91
2023/07/26 20:50:54;;;;;;;0.90;0.65;;;;;;;;;;10373554;28;20049;-90
2023/07/26 20:56:03;;;;;;;0.85;0.80;;;;;;;;;;10376288;28;20041;-91
2023/07/26 21:01:19;;;;;;;2.03;0.90;;;;;;;;;;10350530;28;20304;-91
2023/07/26 21:06:34;;;;;;;1.20;0.80;;;;;;;;;;10372442;28;20136;-91
2023/07/26 21:11:43;;;;;;;1.98;0.80;;;;;;;;;;10367862;28;20962;-92
2023/07/26 21:16:47;;;;;;;0.95;0.70;;;;;;;;;;10384722;28;20065;-90
2023/07/26 21:21:53;;;;;;;1.27;0.97;;;;;;;;;;10356262;28;20115;-91
2023/07/26 21:27:00;;;;;;;2.65;1.13;;;;;;;;;;10360764;28;20086;-90
2023/07/26 21:32:05;;;;;;;;;;;;;;;;;;10359753;28;20058;-92
2023/07/26 21:37:14;;;;;;;5.55;0.90;;;;;;;;;;10359666;28;20288;-91
2023/07/26 21:42:19;;;;;;;;;;;;;;;;;;10348543;28;20073;-92
2023/07/26 21:47:24;;;;;;;3.15;0.80;;;;;;;;;;10356382;28;19921;-92
2023/07/26 21:52:31;;;;;;;3.15;1.15;;;;;;;;;;10357921;28;20725;-92
2023/07/26 21:57:38;;;;;;;3.85;1.73;;;;;;;;;;10380294;28;20451;-91
2023/07/26 22:02:48;;;;;;;2.72;1.45;;;;;;;;;;10366461;28;20063;-91
2023/07/26 22:07:52;;;;;;;2.30;1.42;;;;;;;;;;10377630;28;20057;-91
2023/07/26 22:12:57;;;;;;;2.58;0.90;;;;;;;;;;10385613;28;20762;-91
2023/07/26 22:18:03;;;;;;;1.02;0.93;;;;;;;;;;10368329;28;20061;-91
2023/07/26 22:23:09;;;;;;;1.50;1.10;;;;;;;;;;10349910;28;20122;-91
2023/07/26 22:28:28;;;;;;;1.38;0.90;;;;;;;;;;10344431;28;20045;-91
2023/07/26 22:33:37;;;;;;;3.42;0.93;;;;;;;;;;10358028;28;20046;-91
2023/07/26 22:38:47;;;;;;;1.90;1.10;;;;;;;;;;10355230;28;20045;-91
2023/07/26 22:44:06;;;;;;;3.85;1.10;;;;;;;;;;10352720;28;20544;-92
2023/07/26 22:49:10;;;;;;;1.50;1.10;;;;;;;;;;10354716;28;20046;-91
2023/07/26 22:54:16;;;;;;;5.38;1.15;;;;;;;;;;10358618;28;20641;-91
2023/07/26 22:59:26;;;;;;;1.60;0.93;;;;;;;;;;10381829;28;20493;-91
2023/07/26 23:04:30;;;;;;;1.95;0.90;;;;;;;;;;10374443;28;20136;-91
2023/07/26 23:09:37;;;;;;;2.33;1.10;;;;;;;;;;10374362;28;20115;-90
2023/07/26 23:14:44;;;;;;;0.93;0.70;;;;;;;;;;10366237;28;20054;-91
2023/07/26 23:20:10;;;;;;;1.65;0.90;;;;;;;;;;10383645;28;20042;-91
2023/07/26 23:25:16;;;;;;;1.30;0.97;;;;;;;;;;10362883;28;20679;-91
2023/07/26 23:30:21;;;;;;;1.13;1.02;;;;;;;;;;10359143;28;20676;-91
2023/07/26 23:35:28;;;;;;;1.52;0.88;;;;;;;;;;10395222;28;20100;-91
2023/07/26 23:40:36;;;;;;;1.70;0.80;;;;;;;;;;10367033;28;20092;-91
2023/07/26 23:45:44;;;;;;;2.17;1.10;;;;;;;;;;10375695;28;20058;-91
2023/07/26 23:50:50;;;;;;;1.23;0.82;;;;;;;;;;10356549;28;20077;-96
2023/07/26 23:56:00;;;;;;;1.00;0.80;;;;;;;;;;10355957;28;20050;-92
